createdAt,value
2018-05-18T00:00:49.453Z,87.32
2018-05-18T00:01:49.429Z,87.41
2018-05-18T00:02:49.409Z,87.23
2018-05-18T00:03:49.382Z,87.13
2018-05-18T00:04:49.359Z,87.79
2018-05-18T00:05:49.321Z,87.60
2018-05-18T00:06:49.301Z,88.37
2018-05-18T00:07:49.265Z,87.70
2018-05-18T00:08:49.249Z,87.60
2018-05-18T00:09:49.220Z,87.60
2018-05-18T00:10:49.191Z,87.70
2018-05-18T00:11:49.166Z,87.70
2018-05-18T00:12:49.139Z,87.13
2018-05-18T00:13:49.110Z,87.13
2018-05-18T00:14:49.088Z,87.13
2018-05-18T00:15:49.055Z,87.13
2018-05-18T00:16:49.035Z,86.84
2018-05-18T00:17:49.001Z,86.98
2018-05-18T00:18:48.982Z,87.36
2018-05-18T00:19:48.951Z,87.17
2018-05-18T00:20:48.920Z,87.07
2018-05-18T00:21:48.902Z,86.46
2018-05-18T00:22:48.866Z,86.75
2018-05-18T00:23:48.847Z,87.51
2018-05-18T00:24:48.811Z,88.08
2018-05-18T00:25:48.802Z,87.89
2018-05-18T00:26:48.766Z,87.51
2018-05-18T00:27:48.740Z,87.89
2018-05-18T00:28:48.712Z,88.37
2018-05-18T00:29:48.678Z,87.79
2018-05-18T00:30:48.655Z,88.27
2018-05-18T00:31:48.623Z,88.27
2018-05-18T00:32:48.598Z,87.41
2018-05-18T00:33:48.578Z,88.37
2018-05-18T00:34:48.544Z,88.37
2018-05-18T00:35:48.527Z,88.56
2018-05-18T00:36:48.498Z,87.51
2018-05-18T00:37:48.462Z,87.60
2018-05-18T00:38:48.451Z,87.60
2018-05-18T00:39:48.412Z,87.70
2018-05-18T00:40:48.396Z,87.60
2018-05-18T00:41:48.372Z,88.56
2018-05-18T00:42:48.334Z,87.60
2018-05-18T00:43:48.308Z,87.60
2018-05-18T00:44:48.277Z,87.23
2018-05-18T00:45:48.259Z,87.60
2018-05-18T00:46:48.231Z,87.32
2018-05-18T00:47:48.199Z,87.23
2018-05-18T00:48:48.182Z,87.79
2018-05-18T00:49:48.148Z,88.08
2018-05-18T00:50:48.118Z,88.37
2018-05-18T00:51:48.091Z,87.98
2018-05-18T00:52:48.063Z,87.79
2018-05-18T00:53:48.046Z,87.70
2018-05-18T00:54:48.011Z,88.37
2018-05-18T00:55:47.990Z,87.32
2018-05-18T00:56:47.961Z,87.41
2018-05-18T00:57:47.934Z,87.70
2018-05-18T00:58:47.907Z,87.51
2018-05-18T00:59:47.890Z,87.98
2018-05-18T01:00:47.852Z,87.70
2018-05-18T01:01:47.828Z,87.98
2018-05-18T01:02:47.805Z,87.51
2018-05-18T01:03:47.769Z,87.60
2018-05-18T01:04:47.742Z,88.46
2018-05-18T01:05:47.718Z,87.70
2018-05-18T01:06:47.695Z,87.51
2018-05-18T01:07:47.664Z,87.70
2018-05-18T01:08:47.643Z,87.32
2018-05-18T01:09:47.608Z,87.89
2018-05-18T01:10:47.584Z,88.37
2018-05-18T01:11:47.557Z,87.98
2018-05-18T01:12:47.531Z,88.46
2018-05-18T01:13:47.508Z,88.46
2018-05-18T01:14:47.477Z,87.79
2018-05-18T01:15:47.548Z,86.84
2018-05-18T01:16:47.429Z,87.32
2018-05-18T01:17:47.396Z,87.13
2018-05-18T01:18:47.367Z,87.75
2018-05-18T01:19:47.349Z,87.46
2018-05-18T01:20:47.322Z,87.65
2018-05-18T01:21:47.287Z,87.37
2018-05-18T01:22:47.269Z,87.56
2018-05-18T01:23:47.233Z,87.56
2018-05-18T01:24:47.206Z,87.56
2018-05-18T01:25:47.191Z,88.13
2018-05-18T01:26:47.156Z,88.60
2018-05-18T01:27:47.136Z,87.65
2018-05-18T01:28:47.106Z,88.13
2018-05-18T01:29:47.076Z,87.46
2018-05-18T01:30:47.046Z,87.46
2018-05-18T01:31:47.028Z,88.32
2018-05-18T01:32:46.993Z,87.75
2018-05-18T01:33:46.982Z,88.51
2018-05-18T01:34:46.942Z,88.18
2018-05-18T01:35:46.915Z,87.79
2018-05-18T01:36:46.882Z,87.79
2018-05-18T01:37:46.867Z,86.75
2018-05-18T01:38:46.830Z,86.80
2018-05-18T01:39:46.818Z,86.80
2018-05-18T01:40:46.786Z,86.80
2018-05-18T01:41:46.748Z,87.27
2018-05-18T01:42:46.735Z,87.08
2018-05-18T01:43:46.693Z,86.80
2018-05-18T01:44:46.670Z,87.08
2018-05-18T01:45:46.649Z,86.80
2018-05-18T01:46:46.612Z,87.18
2018-05-18T01:47:46.584Z,87.60
2018-05-18T01:48:46.567Z,88.23
2018-05-18T01:49:46.534Z,87.37
2018-05-18T01:50:46.510Z,87.13
2018-05-18T01:51:46.489Z,87.23
2018-05-18T01:52:46.457Z,86.55
2018-05-18T01:53:46.431Z,86.94
2018-05-18T01:54:46.430Z,85.99
2018-05-18T01:55:46.375Z,86.75
2018-05-18T01:56:46.347Z,86.18
2018-05-18T01:57:46.325Z,86.61
2018-05-18T01:58:46.293Z,86.51
2018-05-18T01:59:46.264Z,87.18
2018-05-18T02:00:46.240Z,86.90
2018-05-18T02:01:46.210Z,87.37
2018-05-18T02:02:46.179Z,87.56
2018-05-18T02:03:46.164Z,87.27
2018-05-18T02:04:46.130Z,87.65
2018-05-18T02:05:46.104Z,87.18
2018-05-18T02:06:46.084Z,87.56
2018-05-18T02:07:46.044Z,87.65
2018-05-18T02:08:46.021Z,88.42
2018-05-18T02:09:45.999Z,87.56
2018-05-18T02:10:45.963Z,87.75
2018-05-18T02:11:45.937Z,87.18
2018-05-18T02:12:45.913Z,87.13
2018-05-18T02:13:45.889Z,87.13
2018-05-18T02:14:45.858Z,86.75
2018-05-18T02:15:45.836Z,86.46
2018-05-18T02:16:45.802Z,86.84
2018-05-18T02:17:45.777Z,86.55
2018-05-18T02:18:45.754Z,86.27
2018-05-18T02:19:45.724Z,87.13
2018-05-18T02:20:45.698Z,87.13
2018-05-18T02:21:45.669Z,86.65
2018-05-18T02:22:45.644Z,87.32
2018-05-18T02:23:45.612Z,87.51
2018-05-18T02:24:45.595Z,87.23
2018-05-18T02:25:45.561Z,87.08
2018-05-18T02:26:45.533Z,87.37
2018-05-18T02:27:45.504Z,87.23
2018-05-18T02:28:45.475Z,87.46
2018-05-18T02:29:45.461Z,87.27
2018-05-18T02:30:45.428Z,88.13
2018-05-18T02:31:45.404Z,87.85
2018-05-18T02:32:45.370Z,87.46
2018-05-18T02:33:45.350Z,88.32
2018-05-18T02:34:45.321Z,87.46
2018-05-18T02:35:45.307Z,87.85
2018-05-18T02:36:45.289Z,87.75
2018-05-18T02:37:45.237Z,87.75
2018-05-18T02:38:45.209Z,87.56
2018-05-18T02:39:45.189Z,88.32
2018-05-18T02:40:45.152Z,88.13
2018-05-18T02:41:45.135Z,88.42
2018-05-18T02:42:45.108Z,88.42
2018-05-18T02:43:45.080Z,87.56
2018-05-18T02:44:45.044Z,88.23
2018-05-18T02:45:45.019Z,88.23
2018-05-18T02:46:45.001Z,87.65
2018-05-18T02:47:44.963Z,87.46
2018-05-18T02:48:44.944Z,88.23
2018-05-18T02:49:44.908Z,87.56
2018-05-18T02:50:44.887Z,88.51
2018-05-18T02:51:44.860Z,87.85
2018-05-18T02:52:44.838Z,87.56
2018-05-18T02:53:44.810Z,87.56
2018-05-18T02:54:44.783Z,87.46
2018-05-18T02:55:44.748Z,87.46
2018-05-18T02:56:44.723Z,87.18
2018-05-18T02:57:44.697Z,87.08
2018-05-18T02:58:44.675Z,87.08
2018-05-18T02:59:44.642Z,86.61
2018-05-18T03:00:44.622Z,87.18
2018-05-18T03:01:44.593Z,86.32
2018-05-18T03:02:44.611Z,87.18
2018-05-18T03:03:44.534Z,87.08
2018-05-18T03:04:44.505Z,86.51
2018-05-18T03:05:44.484Z,86.90
2018-05-18T03:06:44.503Z,86.13
2018-05-18T03:07:44.477Z,85.85
2018-05-18T03:08:44.407Z,85.37
2018-05-18T03:09:44.369Z,85.85
2018-05-18T03:10:44.342Z,85.94
2018-05-18T03:11:44.320Z,85.56
2018-05-18T03:12:44.293Z,85.75
2018-05-18T03:13:44.265Z,85.28
2018-05-18T03:14:44.231Z,85.56
2018-05-18T03:15:44.212Z,85.61
2018-05-18T03:16:44.178Z,85.66
2018-05-18T03:17:44.154Z,85.18
2018-05-18T03:18:44.130Z,85.08
2018-05-18T03:19:44.099Z,84.99
2018-05-18T03:20:44.075Z,85.37
2018-05-18T03:21:44.042Z,85.28
2018-05-18T03:22:44.014Z,85.37
2018-05-18T03:23:43.989Z,84.70
2018-05-18T03:24:43.963Z,85.18
2018-05-18T03:25:43.937Z,84.99
2018-05-18T03:26:43.910Z,84.99
2018-05-18T03:27:43.881Z,84.70
2018-05-18T03:28:43.848Z,84.70
2018-05-18T03:29:43.824Z,84.61
2018-05-18T03:30:43.796Z,84.33
2018-05-18T03:31:43.763Z,84.80
2018-05-18T03:32:43.735Z,84.42
2018-05-18T03:33:43.725Z,84.23
2018-05-18T03:34:43.681Z,84.04
2018-05-18T03:35:43.663Z,84.42
2018-05-18T03:36:43.660Z,84.56
2018-05-18T03:37:43.601Z,84.61
2018-05-18T03:38:43.572Z,84.52
2018-05-18T03:39:43.556Z,84.61
2018-05-18T03:40:43.518Z,83.65
2018-05-18T03:41:43.495Z,83.56
2018-05-18T03:42:43.473Z,83.85
2018-05-18T03:43:43.437Z,84.13
2018-05-18T03:44:43.406Z,84.23
2018-05-18T03:45:43.392Z,83.47
2018-05-18T03:46:43.359Z,83.47
2018-05-18T03:47:43.332Z,83.75
2018-05-18T03:48:43.308Z,83.75
2018-05-18T03:49:43.274Z,83.75
2018-05-18T03:50:43.254Z,83.65
2018-05-18T03:51:43.214Z,83.56
2018-05-18T03:52:43.197Z,83.56
2018-05-18T03:53:43.165Z,83.65
2018-05-18T03:54:43.146Z,83.85
2018-05-18T03:55:43.106Z,83.56
2018-05-18T03:56:43.079Z,84.13
2018-05-18T03:57:43.064Z,83.56
2018-05-18T03:58:43.026Z,83.94
2018-05-18T03:59:43.005Z,84.52
2018-05-18T04:00:42.989Z,83.94
2018-05-18T04:01:42.947Z,83.75
2018-05-18T04:02:42.915Z,83.37
2018-05-18T04:03:42.900Z,83.65
2018-05-18T04:04:42.908Z,83.94
2018-05-18T04:05:42.839Z,83.47
2018-05-18T04:06:42.815Z,83.65
2018-05-18T04:07:42.780Z,83.56
2018-05-18T04:08:42.768Z,83.85
2018-05-18T04:09:42.724Z,83.85
2018-05-18T04:10:42.705Z,83.85
2018-05-18T04:11:42.674Z,83.47
2018-05-18T04:12:42.652Z,83.94
2018-05-18T04:13:42.623Z,83.85
2018-05-18T04:14:42.594Z,84.13
2018-05-18T04:15:42.566Z,84.23
2018-05-18T04:16:42.536Z,83.65
2018-05-18T04:17:42.514Z,83.85
2018-05-18T04:18:42.483Z,83.85
2018-05-18T04:19:42.465Z,83.65
2018-05-18T04:20:42.434Z,83.85
2018-05-18T04:21:42.400Z,83.75
2018-05-18T04:22:42.370Z,84.04
2018-05-18T04:23:42.342Z,83.85
2018-05-18T04:24:42.315Z,83.09
2018-05-18T04:25:42.293Z,82.90
2018-05-18T04:26:42.266Z,82.99
2018-05-18T04:27:42.237Z,83.09
2018-05-18T04:28:42.214Z,82.80
2018-05-18T04:29:42.180Z,82.90
2018-05-18T04:30:42.161Z,82.42
2018-05-18T04:31:42.122Z,81.85
2018-05-18T04:32:42.097Z,81.47
2018-05-18T04:33:42.082Z,81.56
2018-05-18T04:34:42.042Z,82.42
2018-05-18T04:35:42.017Z,82.70
2018-05-18T04:36:41.991Z,82.14
2018-05-18T04:37:41.970Z,82.42
2018-05-18T04:38:41.936Z,82.51
2018-05-18T04:39:41.912Z,81.95
2018-05-18T04:40:41.881Z,81.95
2018-05-18T04:41:41.864Z,81.85
2018-05-18T04:42:41.835Z,82.04
2018-05-18T04:43:41.797Z,81.28
2018-05-18T04:44:41.779Z,81.76
2018-05-18T04:45:41.747Z,82.23
2018-05-18T04:46:41.715Z,82.61
2018-05-18T04:47:41.696Z,82.23
2018-05-18T04:48:41.673Z,82.04
2018-05-18T04:49:41.634Z,81.95
2018-05-18T04:50:41.614Z,81.66
2018-05-18T04:51:41.585Z,81.37
2018-05-18T04:52:41.557Z,81.56
2018-05-18T04:53:45.158Z,81.47
2018-05-18T04:54:44.186Z,81.18
2018-05-18T04:55:43.669Z,80.80
2018-05-18T04:56:42.600Z,81.18
2018-05-18T04:57:44.397Z,80.71
2018-05-18T04:58:41.390Z,81.56
2018-05-18T04:59:41.370Z,81.28
2018-05-18T05:00:41.340Z,81.37
2018-05-18T05:01:41.319Z,81.09
2018-05-18T05:02:42.686Z,80.99
2018-05-18T05:03:41.261Z,79.13
2018-05-18T05:04:41.235Z,79.22
2018-05-18T05:05:41.209Z,78.65
2018-05-18T05:06:41.184Z,78.99
2018-05-18T05:07:41.153Z,78.85
2018-05-18T05:08:41.124Z,79.47
2018-05-18T05:09:41.092Z,78.90
2018-05-18T05:10:41.073Z,78.99
2018-05-18T05:11:41.059Z,78.90
2018-05-18T05:12:42.666Z,79.28
2018-05-18T05:13:43.138Z,79.57
2018-05-18T05:14:42.943Z,79.57
2018-05-18T05:15:43.146Z,79.75
2018-05-18T05:16:43.052Z,78.61
2018-05-18T05:17:40.884Z,78.52
2018-05-18T05:18:40.859Z,78.52
2018-05-18T05:19:40.823Z,78.23
2018-05-18T05:20:40.800Z,78.42
2018-05-18T05:21:40.766Z,78.90
2018-05-18T05:22:40.747Z,78.52
2018-05-18T05:23:40.807Z,77.95
2018-05-18T05:24:40.685Z,78.42
2018-05-18T05:25:40.667Z,78.52
2018-05-18T05:26:40.639Z,78.52
2018-05-18T05:27:40.649Z,78.46
2018-05-18T05:28:40.578Z,78.33
2018-05-18T05:29:40.556Z,78.80
2018-05-18T05:30:40.613Z,78.90
2018-05-18T05:31:40.612Z,78.61
2018-05-18T05:32:40.511Z,78.85
2018-05-18T05:33:40.439Z,78.17
2018-05-18T05:34:40.653Z,78.46
2018-05-18T05:35:40.481Z,77.42
2018-05-18T05:36:40.489Z,77.98
2018-05-18T05:37:40.339Z,77.89
2018-05-18T05:38:41.130Z,77.42
2018-05-18T05:39:40.279Z,77.42
2018-05-18T05:40:40.252Z,77.80
2018-05-18T05:41:40.255Z,78.08
2018-05-18T05:42:40.198Z,78.37
2018-05-18T05:43:40.171Z,78.37
2018-05-18T05:44:40.145Z,77.42
2018-05-18T05:45:40.123Z,78.08
2018-05-18T05:46:40.098Z,77.89
2018-05-18T05:47:40.061Z,77.70
2018-05-18T05:48:40.049Z,77.22
2018-05-18T05:49:40.015Z,76.75
2018-05-18T05:50:39.981Z,77.32
2018-05-18T05:51:39.964Z,77.32
2018-05-18T05:52:39.934Z,77.32
2018-05-18T05:53:39.927Z,77.80
2018-05-18T05:54:39.875Z,77.51
2018-05-18T05:55:39.845Z,77.03
2018-05-18T05:56:39.817Z,77.03
2018-05-18T05:57:39.794Z,77.22
2018-05-18T05:58:39.769Z,77.03
2018-05-18T05:59:39.744Z,76.84
2018-05-18T06:00:39.715Z,76.84
2018-05-18T06:01:39.685Z,77.03
2018-05-18T06:02:39.666Z,77.80
2018-05-18T06:03:39.643Z,77.42
2018-05-18T06:04:39.604Z,77.22
2018-05-18T06:05:39.586Z,77.22
2018-05-18T06:06:39.561Z,76.75
2018-05-18T06:07:39.539Z,77.61
2018-05-18T06:08:39.499Z,77.03
2018-05-18T06:09:39.482Z,77.22
2018-05-18T06:10:39.464Z,77.03
2018-05-18T06:11:39.424Z,77.51
2018-05-18T06:12:39.395Z,77.22
2018-05-18T06:13:39.359Z,77.51
2018-05-18T06:14:39.335Z,77.32
2018-05-18T06:15:39.312Z,77.32
2018-05-18T06:16:39.291Z,77.42
2018-05-18T06:17:39.250Z,77.61
2018-05-18T06:18:39.228Z,77.51
2018-05-18T06:19:39.203Z,76.65
2018-05-18T06:20:39.171Z,77.51
2018-05-18T06:21:39.151Z,76.37
2018-05-18T06:22:39.114Z,76.21
2018-05-18T06:23:39.099Z,76.21
2018-05-18T06:24:39.076Z,75.64
2018-05-18T06:25:39.041Z,74.98
2018-05-18T06:26:39.018Z,74.69
2018-05-18T06:27:38.985Z,74.79
2018-05-18T06:28:39.042Z,75.16
2018-05-18T06:29:38.941Z,75.45
2018-05-18T06:30:38.912Z,74.88
2018-05-18T06:31:38.914Z,74.79
2018-05-18T06:32:38.850Z,74.79
2018-05-18T06:33:38.832Z,75.07
2018-05-18T06:34:38.922Z,75.26
2018-05-18T06:35:38.770Z,75.55
2018-05-18T06:36:38.751Z,75.07
2018-05-18T06:37:38.719Z,75.16
2018-05-18T06:38:38.860Z,75.74
2018-05-18T06:39:38.665Z,75.16
2018-05-18T06:40:38.664Z,74.40
2018-05-18T06:41:38.614Z,74.92
2018-05-18T06:42:38.588Z,74.35
2018-05-18T06:43:38.562Z,74.44
2018-05-18T06:44:38.536Z,73.96
2018-05-18T06:45:38.516Z,73.49
2018-05-18T06:46:38.483Z,72.72
2018-05-18T06:47:38.447Z,72.25
2018-05-18T06:48:38.433Z,72.44
2018-05-18T06:49:38.394Z,73.01
2018-05-18T06:50:38.399Z,72.72
2018-05-18T06:51:38.436Z,72.25
2018-05-18T06:52:38.356Z,72.63
2018-05-18T06:53:38.299Z,73.11
2018-05-18T06:54:38.270Z,72.92
2018-05-18T06:55:38.238Z,72.72
2018-05-18T06:56:38.212Z,72.82
2018-05-18T06:57:38.187Z,72.63
2018-05-18T06:58:38.243Z,73.21
2018-05-18T06:59:38.131Z,73.49
2018-05-18T07:00:38.103Z,73.96
2018-05-18T07:01:38.080Z,73.87
2018-05-18T07:02:38.053Z,73.58
2018-05-18T07:03:38.035Z,72.34
2018-05-18T07:04:38.003Z,72.63
2018-05-18T07:05:38.030Z,73.01
2018-05-18T07:06:37.955Z,72.44
2018-05-18T07:07:37.925Z,73.11
2018-05-18T07:08:37.901Z,73.30
2018-05-18T07:09:37.867Z,73.17
2018-05-18T07:10:37.862Z,73.21
2018-05-18T07:11:37.821Z,73.17
2018-05-18T07:12:37.797Z,72.97
2018-05-18T07:13:37.764Z,73.65
2018-05-18T07:14:37.736Z,74.02
2018-05-18T07:15:37.710Z,73.74
2018-05-18T07:16:37.744Z,73.65
2018-05-18T07:17:37.664Z,72.97
2018-05-18T07:18:37.634Z,73.65
2018-05-18T07:19:37.609Z,73.55
2018-05-18T07:20:37.585Z,73.01
2018-05-18T07:21:37.549Z,73.11
2018-05-18T07:22:37.535Z,72.69
2018-05-18T07:23:37.497Z,73.07
2018-05-18T07:24:37.469Z,73.36
2018-05-18T07:25:37.452Z,73.65
2018-05-18T07:26:37.419Z,73.83
2018-05-18T07:27:37.399Z,73.74
2018-05-18T07:28:37.367Z,73.74
2018-05-18T07:29:37.339Z,74.31
2018-05-18T07:30:37.312Z,75.16
2018-05-18T07:31:37.288Z,75.55
2018-05-18T07:32:37.265Z,75.26
2018-05-18T07:33:37.237Z,75.16
2018-05-18T07:34:37.210Z,74.73
2018-05-18T07:35:37.189Z,74.25
2018-05-18T07:36:37.155Z,73.68
2018-05-18T07:37:37.140Z,73.49
2018-05-18T07:38:37.102Z,72.63
2018-05-18T07:39:37.089Z,72.92
2018-05-18T07:40:37.050Z,72.57
2018-05-18T07:41:37.024Z,72.96
2018-05-18T07:42:37.005Z,72.19
2018-05-18T07:43:36.969Z,71.43
2018-05-18T07:44:36.943Z,70.67
2018-05-18T07:45:36.925Z,71.14
2018-05-18T07:46:36.897Z,71.18
2018-05-18T07:47:36.885Z,71.66
2018-05-18T07:48:36.843Z,70.61
2018-05-18T07:49:36.815Z,70.89
2018-05-18T07:50:36.802Z,70.67
2018-05-18T07:51:36.835Z,71.62
2018-05-18T07:52:36.745Z,71.33
2018-05-18T07:53:36.766Z,71.33
2018-05-18T07:54:36.687Z,71.18
2018-05-18T07:55:36.663Z,70.57
2018-05-18T07:56:36.641Z,71.81
2018-05-18T07:57:36.615Z,70.67
2018-05-18T07:58:36.586Z,70.76
2018-05-18T07:59:36.629Z,70.86
2018-05-18T08:00:36.537Z,71.23
2018-05-18T08:01:36.506Z,70.67
2018-05-18T08:02:36.500Z,70.57
2018-05-18T08:03:36.457Z,70.67
2018-05-18T08:04:36.432Z,70.67
2018-05-18T08:05:36.459Z,70.47
2018-05-18T08:06:36.380Z,70.76
2018-05-18T08:07:36.403Z,70.67
2018-05-18T08:08:36.364Z,70.67
2018-05-18T08:09:36.322Z,70.79
2018-05-18T08:10:36.274Z,70.47
2018-05-18T08:11:36.308Z,70.67
2018-05-18T08:12:36.228Z,70.79
2018-05-18T08:13:36.194Z,70.89
2018-05-18T08:14:36.173Z,70.38
2018-05-18T08:15:36.147Z,70.19
2018-05-18T08:16:36.140Z,70.57
2018-05-18T08:17:36.097Z,70.76
2018-05-18T08:18:36.067Z,71.33
2018-05-18T08:19:36.038Z,70.76
2018-05-18T08:20:36.021Z,70.76
2018-05-18T08:21:36.014Z,69.90
2018-05-18T08:22:35.976Z,70.38
2018-05-18T08:23:35.960Z,70.89
2018-05-18T08:24:35.908Z,70.13
2018-05-18T08:25:35.899Z,70.57
2018-05-18T08:26:35.868Z,70.13
2018-05-18T08:27:35.909Z,69.62
2018-05-18T08:28:35.818Z,69.71
2018-05-18T08:29:35.786Z,69.52
2018-05-18T08:30:35.763Z,70.28
2018-05-18T08:31:35.736Z,70.38
2018-05-18T08:32:35.711Z,70.86
2018-05-18T08:33:35.737Z,70.67
2018-05-18T08:34:35.655Z,70.57
2018-05-18T08:35:35.673Z,70.86
2018-05-18T08:36:35.605Z,70.03
2018-05-18T08:37:35.584Z,68.51
2018-05-18T08:38:35.556Z,66.78
2018-05-18T08:39:35.532Z,67.07
2018-05-18T08:40:35.509Z,67.11
2018-05-18T08:41:35.477Z,66.72
2018-05-18T08:42:35.456Z,67.30
2018-05-18T08:43:35.442Z,68.38
2018-05-18T08:44:35.398Z,66.53
2018-05-18T08:45:35.382Z,66.92
2018-05-18T08:46:35.356Z,67.01
2018-05-18T08:47:35.368Z,67.11
2018-05-18T08:48:35.301Z,67.27
2018-05-18T08:49:35.277Z,68.70
2018-05-18T08:50:35.248Z,69.84
2018-05-18T08:51:35.226Z,69.93
2018-05-18T08:52:35.202Z,69.93
2018-05-18T08:53:35.174Z,70.61
2018-05-18T08:54:35.150Z,70.61
2018-05-18T08:55:35.121Z,69.37
2018-05-18T08:56:35.100Z,68.60
2018-05-18T08:57:35.075Z,68.70
2018-05-18T08:58:35.042Z,69.21
2018-05-18T08:59:36.106Z,69.21
2018-05-18T09:00:35.050Z,68.82
2018-05-18T09:01:34.972Z,68.73
2018-05-18T09:02:34.974Z,67.11
2018-05-18T09:03:34.916Z,67.87
2018-05-18T09:04:34.896Z,68.16
2018-05-18T09:05:34.874Z,68.41
2018-05-18T09:06:34.845Z,69.27
2018-05-18T09:07:34.842Z,70.13
2018-05-18T09:08:34.801Z,70.22
2018-05-18T09:09:34.770Z,70.61
2018-05-18T09:10:34.742Z,70.13
2018-05-18T09:11:34.718Z,68.98
2018-05-18T09:12:34.690Z,69.43
2018-05-18T09:13:34.669Z,70.67
2018-05-18T09:14:34.641Z,70.76
2018-05-18T09:15:34.615Z,70.76
2018-05-18T09:16:34.591Z,70.86
2018-05-18T09:17:34.562Z,71.08
2018-05-18T09:18:34.541Z,69.65
2018-05-18T09:19:34.512Z,69.27
2018-05-18T09:20:34.491Z,68.82
2018-05-18T09:21:34.470Z,69.21
2018-05-18T09:22:34.432Z,68.54
2018-05-18T09:23:34.406Z,68.00
2018-05-18T09:24:34.383Z,67.43
2018-05-18T09:25:34.365Z,67.43
2018-05-18T09:26:34.446Z,67.14
2018-05-18T09:27:34.316Z,67.05
2018-05-18T09:28:34.280Z,68.38
2018-05-18T09:29:34.264Z,67.11
2018-05-18T09:30:34.241Z,68.38
2018-05-18T09:31:34.212Z,67.14
2018-05-18T09:32:34.189Z,67.24
2018-05-18T09:33:34.154Z,66.53
2018-05-18T09:34:34.132Z,66.44
2018-05-18T09:35:34.109Z,67.30
2018-05-18T09:36:34.079Z,67.68
2018-05-18T09:37:34.062Z,67.30
2018-05-18T09:38:34.035Z,67.30
2018-05-18T09:39:34.008Z,67.21
2018-05-18T09:40:33.988Z,67.21
2018-05-18T09:41:33.951Z,67.30
2018-05-18T09:42:33.929Z,67.97
2018-05-18T09:43:33.907Z,68.54
2018-05-18T09:44:33.885Z,68.06
2018-05-18T09:45:33.850Z,68.16
2018-05-18T09:46:33.827Z,68.16
2018-05-18T09:47:33.804Z,68.06
2018-05-18T09:48:33.773Z,67.87
2018-05-18T09:49:33.771Z,67.49
2018-05-18T09:50:33.730Z,66.92
2018-05-18T09:51:33.700Z,66.92
2018-05-18T09:52:33.680Z,66.35
2018-05-18T09:53:33.649Z,66.92
2018-05-18T09:54:33.817Z,67.40
2018-05-18T09:55:33.828Z,67.30
2018-05-18T09:56:33.569Z,66.95
2018-05-18T09:57:33.555Z,66.85
2018-05-18T09:58:33.528Z,66.28
2018-05-18T09:59:33.503Z,66.09
2018-05-18T10:00:33.477Z,65.90
2018-05-18T10:01:33.449Z,66.09
2018-05-18T10:02:33.430Z,66.95
2018-05-18T10:03:33.397Z,66.19
2018-05-18T10:04:33.454Z,66.99
2018-05-18T10:05:33.352Z,66.41
2018-05-18T10:06:33.333Z,67.02
2018-05-18T10:07:33.296Z,65.55
2018-05-18T10:08:33.270Z,65.07
2018-05-18T10:09:33.263Z,65.36
2018-05-18T10:10:33.220Z,66.03
2018-05-18T10:11:33.201Z,66.41
2018-05-18T10:12:33.178Z,66.22
2018-05-18T10:13:33.144Z,65.93
2018-05-18T10:14:33.127Z,65.74
2018-05-18T10:15:33.093Z,66.50
2018-05-18T10:16:33.071Z,65.45
2018-05-18T10:17:33.050Z,65.93
2018-05-18T10:18:33.067Z,65.36
2018-05-18T10:19:32.994Z,66.09
2018-05-18T10:20:32.978Z,66.19
2018-05-18T10:21:32.950Z,66.19
2018-05-18T10:22:32.925Z,66.38
2018-05-18T10:23:32.897Z,66.56
2018-05-18T10:24:32.874Z,66.63
2018-05-18T10:25:32.853Z,66.85
2018-05-18T10:26:32.830Z,66.72
2018-05-18T10:27:32.801Z,66.85
2018-05-18T10:28:32.769Z,66.19
2018-05-18T10:29:32.751Z,66.99
2018-05-18T10:30:32.725Z,66.31
2018-05-18T10:31:32.705Z,66.50
2018-05-18T10:32:32.676Z,65.01
2018-05-18T10:33:32.648Z,64.88
2018-05-18T10:34:32.622Z,64.88
2018-05-18T10:35:32.603Z,65.33
2018-05-18T10:36:32.576Z,66.38
2018-05-18T10:37:32.551Z,66.00
2018-05-18T10:38:32.532Z,66.13
2018-05-18T10:39:32.572Z,66.31
2018-05-18T10:40:32.471Z,66.22
2018-05-18T10:41:32.453Z,66.89
2018-05-18T10:42:32.428Z,66.79
2018-05-18T10:43:32.406Z,66.63
2018-05-18T10:44:32.381Z,65.77
2018-05-18T10:45:32.347Z,65.77
2018-05-18T10:46:32.330Z,64.95
2018-05-18T10:47:32.298Z,63.32
2018-05-18T10:48:32.279Z,62.27
2018-05-18T10:49:32.282Z,62.65
2018-05-18T10:50:32.232Z,63.19
2018-05-18T10:51:32.200Z,62.94
2018-05-18T10:52:32.182Z,63.51
2018-05-18T10:53:32.153Z,62.84
2018-05-18T10:54:32.127Z,63.70
2018-05-18T10:55:32.108Z,63.48
2018-05-18T10:56:32.085Z,63.57
2018-05-18T10:57:32.050Z,63.83
2018-05-18T10:58:32.051Z,64.22
2018-05-18T10:59:32.003Z,65.23
2018-05-18T11:00:31.983Z,65.52
2018-05-18T11:01:31.962Z,65.23
2018-05-18T11:02:31.931Z,66.41
2018-05-18T11:03:31.912Z,66.13
2018-05-18T11:04:31.887Z,65.74
2018-05-18T11:05:31.864Z,65.84
2018-05-18T11:06:31.836Z,65.84
2018-05-18T11:07:31.810Z,65.93
2018-05-18T11:08:31.787Z,66.25
2018-05-18T11:09:31.763Z,65.74
2018-05-18T11:10:31.736Z,65.74
2018-05-18T11:11:31.711Z,65.84
2018-05-18T11:12:31.688Z,66.31
2018-05-18T11:13:31.664Z,67.40
2018-05-18T11:14:31.634Z,66.92
2018-05-18T11:15:31.610Z,63.60
2018-05-18T11:16:31.597Z,62.84
2018-05-18T11:17:31.566Z,62.74
2018-05-18T11:18:31.538Z,62.74
2018-05-18T11:19:31.514Z,62.40
2018-05-18T11:20:31.488Z,61.63
2018-05-18T11:21:31.471Z,61.88
2018-05-18T11:22:31.442Z,62.08
2018-05-18T11:23:31.417Z,62.37
2018-05-18T11:24:31.393Z,62.46
2018-05-18T11:25:31.365Z,63.32
2018-05-18T11:26:31.359Z,62.84
2018-05-18T11:27:31.317Z,62.55
2018-05-18T11:28:31.289Z,63.89
2018-05-18T11:29:31.265Z,64.25
2018-05-18T11:30:31.251Z,64.62
2018-05-18T11:31:31.221Z,65.11
2018-05-18T11:32:31.201Z,64.62
2018-05-18T11:33:31.171Z,64.40
2018-05-18T11:34:31.152Z,64.82
2018-05-18T11:35:31.122Z,64.50
2018-05-18T11:36:31.098Z,64.43
2018-05-18T11:37:31.073Z,64.43
2018-05-18T11:38:31.049Z,62.90
2018-05-18T11:39:31.025Z,63.00
2018-05-18T11:40:31.000Z,63.19
2018-05-18T11:41:30.978Z,61.95
2018-05-18T11:42:30.959Z,61.66
2018-05-18T11:43:30.964Z,62.52
2018-05-18T11:44:30.904Z,62.55
2018-05-18T11:45:30.893Z,62.65
2018-05-18T11:46:30.855Z,61.60
2018-05-18T11:47:30.834Z,61.51
2018-05-18T11:48:30.804Z,62.43
2018-05-18T11:49:30.781Z,64.62
2018-05-18T11:50:30.761Z,64.88
2018-05-18T11:51:30.731Z,65.45
2018-05-18T11:52:30.707Z,64.91
2018-05-18T11:53:30.683Z,64.78
2018-05-18T11:54:30.662Z,65.36
2018-05-18T11:55:30.632Z,64.98
2018-05-18T11:56:30.611Z,65.36
2018-05-18T11:57:30.583Z,64.34
2018-05-18T11:58:30.563Z,63.86
2018-05-18T11:59:30.540Z,63.86
2018-05-18T12:00:31.196Z,63.10
2018-05-18T12:01:30.483Z,62.71
2018-05-18T12:02:30.465Z,62.62
2018-05-18T12:03:30.434Z,62.71
2018-05-18T12:04:30.434Z,62.65
2018-05-18T12:05:30.399Z,62.65
2018-05-18T12:06:30.358Z,62.55
2018-05-18T12:07:30.342Z,62.08
2018-05-18T12:08:30.334Z,62.37
2018-05-18T12:09:30.287Z,63.32
2018-05-18T12:10:30.261Z,62.27
2018-05-18T12:11:30.242Z,62.94
2018-05-18T12:12:30.215Z,62.84
2018-05-18T12:13:30.196Z,61.41
2018-05-18T12:14:30.167Z,61.02
2018-05-18T12:15:30.145Z,60.74
2018-05-18T12:16:30.115Z,60.64
2018-05-18T12:17:30.102Z,61.02
2018-05-18T12:18:30.071Z,61.05
2018-05-18T12:19:30.047Z,60.35
2018-05-18T12:20:30.017Z,60.93
2018-05-18T12:21:29.990Z,61.25
2018-05-18T12:22:29.976Z,61.12
2018-05-18T12:23:29.941Z,62.46
2018-05-18T12:24:29.919Z,62.84
2018-05-18T12:25:29.898Z,62.87
2018-05-18T12:26:29.880Z,61.69
2018-05-18T12:27:29.851Z,62.37
2018-05-18T12:28:29.832Z,62.11
2018-05-18T12:29:29.800Z,62.59
2018-05-18T12:30:29.777Z,60.96
2018-05-18T12:31:29.836Z,61.44
2018-05-18T12:32:29.738Z,61.72
2018-05-18T12:33:29.711Z,60.67
2018-05-18T12:34:29.674Z,61.05
2018-05-18T12:35:29.652Z,61.54
2018-05-18T12:36:29.628Z,62.01
2018-05-18T12:37:29.608Z,60.58
2018-05-18T12:38:29.588Z,60.67
2018-05-18T12:39:29.551Z,60.29
2018-05-18T12:40:29.537Z,61.05
2018-05-18T12:41:29.503Z,61.05
2018-05-18T12:42:29.492Z,60.74
2018-05-18T12:43:29.456Z,61.22
2018-05-18T12:44:29.444Z,62.59
2018-05-18T12:45:29.415Z,62.49
2018-05-18T12:46:29.393Z,61.63
2018-05-18T12:47:29.367Z,61.34
2018-05-18T12:48:29.348Z,60.96
2018-05-18T12:49:29.317Z,61.34
2018-05-18T12:50:29.290Z,62.01
2018-05-18T12:51:29.319Z,62.20
2018-05-18T12:52:29.243Z,60.58